createdAt,value
2018-04-02T00:02:17.237Z,81.49
2018-04-02T00:05:19.800Z,81.47
2018-04-02T00:08:22.260Z,81.39
2018-04-02T00:11:24.831Z,81.31
2018-04-02T00:14:27.287Z,81.44
2018-04-02T00:17:29.851Z,81.36
2018-04-02T00:20:32.307Z,81.33
2018-04-02T00:23:34.807Z,80.59
2018-04-02T00:26:37.259Z,80.76
2018-04-02T00:29:39.792Z,80.72
2018-04-02T00:32:42.260Z,80.79
2018-04-02T00:35:44.813Z,80.40
2018-04-02T00:38:47.261Z,80.35
2018-04-02T00:41:49.731Z,80.04
2018-04-02T00:44:52.228Z,80.46
2018-04-02T00:47:54.757Z,80.55
2018-04-02T00:50:57.316Z,80.60
2018-04-02T00:53:59.886Z,80.53
2018-04-02T00:57:03.060Z,80.56
2018-04-02T01:00:05.618Z,80.60
2018-04-02T01:03:08.101Z,80.86
2018-04-02T01:06:10.641Z,80.88
2018-04-02T01:09:13.108Z,79.97
2018-04-02T01:12:15.576Z,80.28
2018-04-02T01:15:18.058Z,79.29
2018-04-02T01:18:20.522Z,79.07
2018-04-02T01:21:22.965Z,79.56
2018-04-02T01:24:25.428Z,79.75
2018-04-02T01:27:27.888Z,80.12
2018-04-02T01:30:30.408Z,80.16
2018-04-02T01:33:34.163Z,80.07
2018-04-02T01:36:36.612Z,79.99
2018-04-02T01:39:39.142Z,80.08
2018-04-02T01:42:41.567Z,80.23
2018-04-02T01:45:44.022Z,80.46
2018-04-02T01:48:46.529Z,79.95
2018-04-02T01:51:48.977Z,79.53
2018-04-02T01:54:51.487Z,79.64
2018-04-02T01:57:54.048Z,79.86
2018-04-02T02:00:56.474Z,79.93
2018-04-02T02:03:58.933Z,80.06
2018-04-02T02:07:02.873Z,80.27
2018-04-02T02:10:05.297Z,80.21
2018-04-02T02:13:07.757Z,79.97
2018-04-02T02:16:10.311Z,80.03
2018-04-02T02:19:12.788Z,80.15
2018-04-02T02:22:15.253Z,80.26
2018-04-02T02:25:17.788Z,80.17
2018-04-02T02:28:20.351Z,80.69
2018-04-02T02:31:22.920Z,80.69
2018-04-02T02:34:25.430Z,80.07
2018-04-02T02:37:27.946Z,80.43
2018-04-02T02:40:30.378Z,80.07
2018-04-02T02:43:32.963Z,80.49
2018-04-02T02:46:35.433Z,80.31
2018-04-02T02:49:37.857Z,79.81
2018-04-02T02:52:40.349Z,79.62
2018-04-02T02:55:42.916Z,79.99
2018-04-02T02:58:45.468Z,80.26
2018-04-02T03:01:48.009Z,80.62
2018-04-02T03:04:50.445Z,81.29
2018-04-02T03:07:53.052Z,81.97
2018-04-02T03:10:55.574Z,82.26
2018-04-02T03:13:59.272Z,82.78
2018-04-02T03:17:01.869Z,83.01
2018-04-02T03:20:04.437Z,82.96
2018-04-02T03:23:06.897Z,83.00
2018-04-02T03:26:10.178Z,82.83
2018-04-02T03:29:12.638Z,82.77
2018-04-02T03:32:15.104Z,83.04
2018-04-02T03:35:17.657Z,83.23
2018-04-02T03:38:20.149Z,83.08
2018-04-02T03:41:22.682Z,83.23
2018-04-02T03:44:25.143Z,83.33
2018-04-02T03:47:27.660Z,83.42
2018-04-02T03:50:30.135Z,83.63
2018-04-02T03:53:32.628Z,83.65
2018-04-02T03:56:35.088Z,83.76
2018-04-02T03:59:37.570Z,83.72
2018-04-02T04:02:40.045Z,83.81
2018-04-02T04:05:42.488Z,83.90
2018-04-02T04:08:45.509Z,84.23
2018-04-02T04:11:48.000Z,84.77
2018-04-02T04:14:50.572Z,84.63
2018-04-02T04:17:53.028Z,85.15
2018-04-02T04:20:55.580Z,85.09
2018-04-02T04:23:58.049Z,85.06
2018-04-02T04:27:00.569Z,84.97
2018-04-02T04:30:03.024Z,85.03
2018-04-02T04:33:05.538Z,85.46
2018-04-02T04:36:09.535Z,85.84
2018-04-02T04:39:12.090Z,86.06
2018-04-02T04:42:14.655Z,86.19
2018-04-02T04:45:17.142Z,86.45
2018-04-02T04:48:19.674Z,86.61
2018-04-02T04:51:22.238Z,86.64
2018-04-02T04:54:24.694Z,86.84
2018-04-02T04:57:27.260Z,87.14
2018-04-02T05:00:29.747Z,87.71
2018-04-02T05:03:32.225Z,88.19
2018-04-02T05:06:34.750Z,88.36
2018-04-02T05:09:37.314Z,88.74
2018-04-02T05:12:39.772Z,89.22
2018-04-02T05:15:42.216Z,89.38
2018-04-02T05:18:44.685Z,89.21
2018-04-02T05:21:47.259Z,88.39
2018-04-02T05:24:49.706Z,87.96
2018-04-02T05:27:52.278Z,87.58
2018-04-02T05:30:54.884Z,87.23
2018-04-02T05:33:57.360Z,87.25
2018-04-02T05:36:59.790Z,86.86
2018-04-02T05:40:02.268Z,86.71
2018-04-02T05:43:04.735Z,86.77
2018-04-02T05:46:07.272Z,86.64
2018-04-02T05:49:09.748Z,86.09
2018-04-02T05:52:12.280Z,84.96
2018-04-02T05:55:14.761Z,84.96
2018-04-02T05:58:17.284Z,84.64
2018-04-02T06:01:19.754Z,84.18
2018-04-02T06:04:22.323Z,83.67
2018-04-02T06:07:24.774Z,83.07
2018-04-02T06:10:27.342Z,83.02
2018-04-02T06:13:29.863Z,83.10
2018-04-02T06:16:32.373Z,82.99
2018-04-02T06:19:34.826Z,82.52
2018-04-02T06:22:37.384Z,82.44
2018-04-02T06:25:39.841Z,81.54
2018-04-02T06:28:42.363Z,81.01
2018-04-02T06:31:44.886Z,80.70
2018-04-02T06:34:47.534Z,80.25
2018-04-02T06:37:49.966Z,79.21
2018-04-02T06:40:52.454Z,78.56
2018-04-02T06:43:54.896Z,78.99
2018-04-02T06:46:57.390Z,79.18
2018-04-02T06:49:59.896Z,77.72
2018-04-02T06:53:02.352Z,78.01
2018-04-02T06:56:04.923Z,76.91
2018-04-02T06:59:07.425Z,74.99
2018-04-02T07:02:09.881Z,73.80
2018-04-02T07:05:12.376Z,74.99
2018-04-02T07:08:14.841Z,72.68
2018-04-02T07:11:17.378Z,71.80
2018-04-02T07:14:19.926Z,75.21
2018-04-02T07:17:22.407Z,72.99
2018-04-02T07:20:24.956Z,72.64
2018-04-02T07:23:27.415Z,73.36
2018-04-02T07:26:29.901Z,73.32
2018-04-02T07:29:32.433Z,74.07
2018-04-02T07:32:34.996Z,75.65
2018-04-02T07:35:37.467Z,75.74
2018-04-02T07:38:39.980Z,76.70
2018-04-02T07:41:42.502Z,76.33
2018-04-02T07:44:44.977Z,73.85
2018-04-02T07:47:47.486Z,71.65
2018-04-02T07:50:50.080Z,69.51
2018-04-02T07:53:52.541Z,70.38
2018-04-02T07:56:55.048Z,68.43
2018-04-02T07:59:57.558Z,67.04
2018-04-02T08:03:00.118Z,66.72
2018-04-02T08:06:02.625Z,68.44
2018-04-02T08:09:05.147Z,67.65
2018-04-02T08:12:07.746Z,72.29
2018-04-02T08:15:10.167Z,69.03
2018-04-02T08:18:12.665Z,68.94
2018-04-02T08:21:15.253Z,69.36
2018-04-02T08:24:17.923Z,65.98
2018-04-02T08:27:20.512Z,68.61
2018-04-02T08:30:22.986Z,68.26
2018-04-02T08:33:25.485Z,69.33
2018-04-02T08:36:28.035Z,67.81
2018-04-02T08:39:30.544Z,66.81
2018-04-02T08:42:33.130Z,65.67
2018-04-02T08:45:35.817Z,64.79
2018-04-02T08:48:38.360Z,65.96
2018-04-02T08:51:40.853Z,68.08
2018-04-02T08:54:43.383Z,67.40
2018-04-02T08:57:45.938Z,67.92
2018-04-02T09:00:48.512Z,66.98
2018-04-02T09:03:51.062Z,66.04
2018-04-02T09:06:53.557Z,66.30
2018-04-02T09:09:56.096Z,67.04
2018-04-02T09:12:58.652Z,65.67
2018-04-02T09:16:01.144Z,66.55
2018-04-02T09:19:03.623Z,68.47
2018-04-02T09:22:06.132Z,68.40
2018-04-02T09:25:08.668Z,68.10
2018-04-02T09:28:11.196Z,67.31
2018-04-02T09:31:13.652Z,65.47
2018-04-02T09:34:16.184Z,66.18
2018-04-02T09:37:18.677Z,64.05
2018-04-02T09:40:21.212Z,63.85
2018-04-02T09:43:23.703Z,63.42
2018-04-02T09:46:26.332Z,64.71
2018-04-02T09:49:28.863Z,63.70
2018-04-02T09:52:31.358Z,65.30
2018-04-02T09:55:33.913Z,62.11
2018-04-02T09:58:36.417Z,60.98
2018-04-02T10:01:38.883Z,64.88
2018-04-02T10:04:43.336Z,61.84
2018-04-02T10:07:45.784Z,62.21
2018-04-02T10:10:48.242Z,61.72
2018-04-02T10:13:50.758Z,61.70
2018-04-02T10:16:53.254Z,64.30
2018-04-02T10:19:55.848Z,64.40
2018-04-02T10:22:58.373Z,63.63
2018-04-02T10:26:00.982Z,61.48
2018-04-02T10:29:03.471Z,63.67
2018-04-02T10:32:05.958Z,61.49
2018-04-02T10:35:08.443Z,62.26
2018-04-02T10:38:10.945Z,61.99
2018-04-02T10:41:13.411Z,62.91
2018-04-02T10:44:15.947Z,61.12
2018-04-02T10:47:18.608Z,61.62
2018-04-02T10:50:21.180Z,61.89
2018-04-02T10:53:23.653Z,59.04
2018-04-02T10:56:26.153Z,58.67
2018-04-02T10:59:28.664Z,58.77
2018-04-02T11:02:31.118Z,58.55
2018-04-02T11:05:33.684Z,57.01
2018-04-02T11:08:36.239Z,57.61
2018-04-02T11:11:38.759Z,59.03
2018-04-02T11:14:41.250Z,60.64
2018-04-02T11:17:43.755Z,59.96
2018-04-02T11:20:46.295Z,56.76
2018-04-02T11:23:48.829Z,58.29
2018-04-02T11:26:51.303Z,57.11
2018-04-02T11:29:53.814Z,59.48
2018-04-02T11:32:56.340Z,57.99
2018-04-02T11:35:58.808Z,60.52
2018-04-02T11:39:01.334Z,60.02
2018-04-02T11:42:03.923Z,56.23
2018-04-02T11:45:06.454Z,57.43
2018-04-02T11:48:09.012Z,54.75
2018-04-02T11:51:11.610Z,55.13
2018-04-02T11:54:14.065Z,58.09
2018-04-02T11:57:16.557Z,56.78
2018-04-02T12:00:19.153Z,56.82
2018-04-02T12:03:21.666Z,55.85
2018-04-02T12:06:24.143Z,55.90
2018-04-02T12:09:26.617Z,54.56
2018-04-02T12:12:29.268Z,55.29
2018-04-02T12:15:31.780Z,53.79
2018-04-02T12:18:34.371Z,54.08
2018-04-02T12:21:36.825Z,55.74
2018-04-02T12:24:39.379Z,54.87
2018-04-02T12:27:41.959Z,54.75
2018-04-02T12:30:44.619Z,55.66
2018-04-02T12:33:47.108Z,52.89
2018-04-02T12:36:49.629Z,53.48
2018-04-02T12:39:52.084Z,55.73
2018-04-02T12:42:54.594Z,52.60
2018-04-02T12:45:57.134Z,54.52
2018-04-02T12:48:59.707Z,54.24
2018-04-02T12:52:02.188Z,53.97
2018-04-02T12:55:04.690Z,55.63
2018-04-02T12:58:07.180Z,54.16
2018-04-02T13:01:09.671Z,52.59
2018-04-02T13:04:12.194Z,54.70
2018-04-02T13:07:14.669Z,55.51
2018-04-02T13:10:17.145Z,56.17
2018-04-02T13:13:19.685Z,57.67
2018-04-02T13:16:22.174Z,57.10
2018-04-02T13:19:24.746Z,57.98
2018-04-02T13:22:27.234Z,56.44
2018-04-02T13:25:29.743Z,58.63
2018-04-02T13:28:32.294Z,56.46
2018-04-02T13:31:34.890Z,57.89
2018-04-02T13:34:37.470Z,55.41
2018-04-02T13:37:40.066Z,56.66
2018-04-02T13:40:42.647Z,55.61
2018-04-02T13:43:45.206Z,55.82
2018-04-02T13:46:47.650Z,55.36
2018-04-02T13:49:50.227Z,56.01
2018-04-02T13:52:52.750Z,55.92
2018-04-02T13:55:55.252Z,54.33
2018-04-02T13:58:57.717Z,56.31
2018-04-02T14:02:00.248Z,55.20
2018-04-02T14:05:02.713Z,55.38
2018-04-02T14:08:05.212Z,54.52
2018-04-02T14:11:07.769Z,56.63
2018-04-02T14:14:10.267Z,54.59
2018-04-02T14:17:12.781Z,54.52
2018-04-02T14:20:15.303Z,54.75
2018-04-02T14:23:17.850Z,54.44
2018-04-02T14:26:20.369Z,54.50
2018-04-02T14:29:22.917Z,53.91
2018-04-02T14:32:25.366Z,54.24
2018-04-02T14:35:27.908Z,55.41
2018-04-02T14:38:30.365Z,56.19
2018-04-02T14:41:32.840Z,54.88
2018-04-02T14:44:35.377Z,55.07
2018-04-02T14:47:37.927Z,55.46
2018-04-02T14:50:40.448Z,54.33
2018-04-02T14:53:42.961Z,55.35
2018-04-02T14:56:45.417Z,54.70
2018-04-02T14:59:47.930Z,55.26
2018-04-02T15:02:50.422Z,55.79
2018-04-02T15:05:52.988Z,55.74
2018-04-02T15:08:55.502Z,56.05
2018-04-02T15:11:57.987Z,55.33
2018-04-02T15:15:00.517Z,55.62
2018-04-02T15:18:03.022Z,55.95
2018-04-02T15:21:05.581Z,55.32
2018-04-02T15:24:08.116Z,54.95
2018-04-02T15:27:10.703Z,55.94
2018-04-02T15:30:13.267Z,54.71
2018-04-02T15:33:15.728Z,54.46
2018-04-02T15:36:18.291Z,53.66
2018-04-02T15:39:20.853Z,54.04
2018-04-02T15:42:23.349Z,54.44
2018-04-02T15:45:25.845Z,53.60
2018-04-02T15:48:28.387Z,53.50
2018-04-02T15:51:30.929Z,53.68
2018-04-02T15:54:33.397Z,53.62
2018-04-02T15:57:38.799Z,53.74
2018-04-02T16:00:41.511Z,54.06
2018-04-02T16:03:44.002Z,54.07
2018-04-02T16:06:46.511Z,54.16
2018-04-02T16:09:48.997Z,53.28
2018-04-02T16:12:51.481Z,52.94
2018-04-02T16:15:53.968Z,54.06
2018-04-02T16:18:56.453Z,54.14
2018-04-02T16:21:58.937Z,54.04
2018-04-02T16:25:01.446Z,55.04
2018-04-02T16:28:03.939Z,55.47
2018-04-02T16:31:06.443Z,54.75
2018-04-02T16:34:08.961Z,54.41
2018-04-02T16:37:11.545Z,55.31
2018-04-02T16:40:13.991Z,55.51
2018-04-02T16:43:16.482Z,55.52
2018-04-02T16:46:19.188Z,55.68
2018-04-02T16:49:21.754Z,56.32
2018-04-02T16:52:24.352Z,55.43
2018-04-02T16:55:26.877Z,56.08
2018-04-02T16:58:29.450Z,56.50
2018-04-02T17:01:31.944Z,55.61
2018-04-02T17:04:34.471Z,56.22
2018-04-02T17:07:36.958Z,56.38
2018-04-02T17:10:39.464Z,55.83
2018-04-02T17:13:41.962Z,56.79
2018-04-02T17:16:44.434Z,56.88
2018-04-02T17:19:46.964Z,56.68
2018-04-02T17:22:49.525Z,56.79
2018-04-02T17:25:52.054Z,56.85
2018-04-02T17:28:54.515Z,57.11
2018-04-02T17:31:57.105Z,57.29
2018-04-02T17:34:59.663Z,58.25
2018-04-02T17:38:02.118Z,58.09
2018-04-02T17:41:04.620Z,58.60
2018-04-02T17:44:07.091Z,58.00
2018-04-02T17:47:09.561Z,58.60
2018-04-02T17:50:12.058Z,58.93
2018-04-02T17:53:14.585Z,57.66
2018-04-02T17:56:17.174Z,58.58
2018-04-02T17:59:19.653Z,60.60
2018-04-02T18:02:22.099Z,60.10
2018-04-02T18:05:24.658Z,59.83
2018-04-02T18:08:27.125Z,59.88
2018-04-02T18:11:29.682Z,59.29
2018-04-02T18:14:32.216Z,58.09
2018-04-02T18:17:34.773Z,58.85
2018-04-02T18:20:37.301Z,59.75
2018-04-02T18:23:39.795Z,59.48
2018-04-02T18:26:42.369Z,59.38
2018-04-02T18:29:44.834Z,59.10
2018-04-02T18:32:47.457Z,59.13
2018-04-02T18:35:50.119Z,58.30
2018-04-02T18:38:52.613Z,58.45
2018-04-02T18:41:55.122Z,59.23
2018-04-02T18:44:57.700Z,60.00
2018-04-02T18:48:00.199Z,59.29
2018-04-02T18:51:02.725Z,59.03
2018-04-02T18:54:05.293Z,58.27
2018-04-02T18:57:07.848Z,58.58
2018-04-02T19:00:10.415Z,58.03
2018-04-02T19:03:12.922Z,58.77
2018-04-02T19:06:15.541Z,58.20
2018-04-02T19:09:18.040Z,58.47
2018-04-02T19:12:20.640Z,59.01
2018-04-02T19:15:23.150Z,58.36
2018-04-02T19:18:25.696Z,58.49
2018-04-02T19:21:28.206Z,58.64
2018-04-02T19:24:31.569Z,58.93
2018-04-02T19:27:34.194Z,59.78
2018-04-02T19:30:36.736Z,58.39
2018-04-02T19:33:39.232Z,59.48
2018-04-02T19:36:41.706Z,59.54
2018-04-02T19:39:44.225Z,58.92
2018-04-02T19:42:46.686Z,58.94
2018-04-02T19:45:49.205Z,59.06
2018-04-02T19:48:51.729Z,59.07
2018-04-02T19:51:54.247Z,59.80
2018-04-02T19:54:56.798Z,59.72
2018-04-02T19:57:59.289Z,60.04
2018-04-02T20:01:02.426Z,60.44
2018-04-02T20:04:04.940Z,60.71
2018-04-02T20:07:07.512Z,60.31
2018-04-02T20:10:09.992Z,60.88
2018-04-02T20:13:12.699Z,60.06
2018-04-02T20:16:15.220Z,60.48
2018-04-02T20:19:17.703Z,60.42
2018-04-02T20:22:20.291Z,60.93
2018-04-02T20:25:22.881Z,61.57
2018-04-02T20:28:25.475Z,60.90
2018-04-02T20:31:28.012Z,60.77
2018-04-02T20:34:30.472Z,59.61
2018-04-02T20:37:33.034Z,58.90
2018-04-02T20:40:35.542Z,59.69
2018-04-02T20:43:38.010Z,59.49
2018-04-02T20:46:40.454Z,61.12
2018-04-02T20:49:43.089Z,62.06
2018-04-02T20:52:45.648Z,62.78
2018-04-02T20:55:48.205Z,62.37
2018-04-02T20:58:50.765Z,63.92
2018-04-02T21:01:53.262Z,67.56
2018-04-02T21:04:55.770Z,66.20
2018-04-02T21:07:58.257Z,67.47
2018-04-02T21:11:00.710Z,67.10
2018-04-02T21:14:03.210Z,66.65
2018-04-02T21:17:05.718Z,68.07
2018-04-02T21:20:08.270Z,67.22
2018-04-02T21:23:10.966Z,67.13
2018-04-02T21:26:13.530Z,67.23
2018-04-02T21:29:16.087Z,68.46
2018-04-02T21:32:18.588Z,68.60
2018-04-02T21:35:21.072Z,68.97
2018-04-02T21:38:23.582Z,69.14
2018-04-02T21:41:26.050Z,69.67
2018-04-02T21:44:28.600Z,69.36
2018-04-02T21:47:31.086Z,70.94
2018-04-02T21:50:33.553Z,70.62
2018-04-02T21:53:36.045Z,72.08
2018-04-02T21:56:38.502Z,70.98
2018-04-02T21:59:41.014Z,71.01
2018-04-02T22:02:43.565Z,71.91
2018-04-02T22:05:46.229Z,72.93
2018-04-02T22:08:48.742Z,75.09
2018-04-02T22:11:51.255Z,74.92
2018-04-02T22:14:53.753Z,75.06
2018-04-02T22:17:56.246Z,75.24
2018-04-02T22:20:58.695Z,76.45
2018-04-02T22:24:01.300Z,75.91
2018-04-02T22:27:03.802Z,76.08
2018-04-02T22:30:06.303Z,76.78
2018-04-02T22:33:08.767Z,77.89
2018-04-02T22:36:11.267Z,77.50
2018-04-02T22:39:13.813Z,77.05
2018-04-02T22:42:16.372Z,76.70
2018-04-02T22:45:18.832Z,74.97
2018-04-02T22:48:21.399Z,76.80
2018-04-02T22:51:23.956Z,75.37
2018-04-02T22:54:26.452Z,74.85
2018-04-02T22:57:28.951Z,77.41
2018-04-02T23:00:31.442Z,77.30
2018-04-02T23:03:33.897Z,76.69
2018-04-02T23:06:36.402Z,76.61
2018-04-02T23:09:38.935Z,77.94
2018-04-02T23:12:41.377Z,78.97
2018-04-02T23:15:43.914Z,76.18
2018-04-02T23:18:46.371Z,76.08
2018-04-02T23:21:48.972Z,75.50
2018-04-02T23:24:51.548Z,78.18
2018-04-02T23:27:54.067Z,79.19
2018-04-02T23:30:56.561Z,79.06
2018-04-02T23:33:59.080Z,79.05
2018-04-02T23:37:01.581Z,77.30
2018-04-02T23:40:04.041Z,77.94
2018-04-02T23:43:06.606Z,78.74
2018-04-02T23:46:09.087Z,78.56
2018-04-02T23:49:11.625Z,77.56
2018-04-02T23:52:14.092Z,78.38
2018-04-02T23:55:16.651Z,77.63
2018-04-02T23:58:19.163Z,76.63
